Time;durP1;ratioP1;P1;durP2;ratioP2;P2;SDS_P1;SDS_P2;PMS_P1;PMS_P2;Temp;Humidity;BMP_temperature;BMP_pressure;BME280_temperature;BME280_humidity;BME280_pressure;Samples;Min_cycle;Max_cycle;Signal;HPM_P1;HPM_P2
2020/12/03 00:00:40;;;;;;;45.95;23.13;;;1.60;99.90;;;;;;5013327;28;20026;-73
2020/12/03 00:03:14;;;;;;;46.50;22.90;;;1.60;99.90;;;;;;5011691;28;20022;-72
2020/12/03 00:05:42;;;;;;;48.70;23.13;;;1.50;99.90;;;;;;5014699;28;20054;-72
2020/12/03 00:08:10;;;;;;;50.85;24.45;;;1.60;99.90;;;;;;5029842;28;20581;-72
2020/12/03 00:10:35;;;;;;;47.08;22.35;;;1.60;99.90;;;;;;5014292;28;20025;-72
2020/12/03 00:13:08;;;;;;;51.67;22.88;;;1.60;99.90;;;;;;5011765;28;20029;-72
2020/12/03 00:15:34;;;;;;;49.30;23.95;;;1.50;99.90;;;;;;5013483;28;20368;-71
2020/12/03 00:18:00;;;;;;;48.15;23.55;;;1.60;99.90;;;;;;5012688;28;20081;-71
2020/12/03 00:20:26;;;;;;;48.67;23.85;;;1.60;99.90;;;;;;5012230;28;20029;-72
2020/12/03 00:22:52;;;;;;;41.95;21.05;;;1.60;99.90;;;;;;5011284;28;20040;-71
2020/12/03 00:25:17;;;;;;;45.63;22.98;;;1.60;99.90;;;;;;5012118;28;20053;-72
2020/12/03 00:27:52;;;;;;;45.83;23.60;;;1.60;99.90;;;;;;5011922;28;20097;-72
2020/12/03 00:30:19;;;;;;;47.60;22.27;;;1.50;99.90;;;;;;5012117;28;20029;-72
2020/12/03 00:32:45;;;;;;;41.75;22.35;;;1.60;99.90;;;;;;5011778;28;20037;-73
2020/12/03 00:35:11;;;;;;;45.20;22.23;;;1.60;99.90;;;;;;5013605;28;20030;-71
2020/12/03 00:37:37;;;;;;;51.15;24.17;;;1.60;99.90;;;;;;5031493;28;20030;-73
2020/12/03 00:40:03;;;;;;;45.42;22.00;;;1.60;99.90;;;;;;5016682;28;20496;-72
2020/12/03 00:42:29;;;;;;;43.72;22.08;;;1.60;99.90;;;;;;5016374;28;20026;-70
2020/12/03 00:44:55;;;;;;;47.60;23.13;;;1.60;99.90;;;;;;5015165;28;20435;-71
2020/12/03 00:47:20;;;;;;;45.95;22.90;;;1.70;99.90;;;;;;5031075;28;20033;-71
2020/12/03 00:49:46;;;;;;;47.85;23.65;;;1.60;99.90;;;;;;5016281;28;20022;-73
2020/12/03 00:52:12;;;;;;;45.70;23.15;;;1.60;99.90;;;;;;5017260;28;20108;-70
2020/12/03 00:54:37;;;;;;;48.05;23.15;;;1.60;99.90;;;;;;5014472;28;20028;-71
2020/12/03 00:57:03;;;;;;;48.50;22.73;;;1.70;99.90;;;;;;5014799;28;20053;-71
2020/12/03 00:59:29;;;;;;;45.92;21.45;;;1.60;99.90;;;;;;5031628;28;20594;-71
2020/12/03 01:01:54;;;;;;;42.58;21.08;;;1.70;99.90;;;;;;5029578;28;20022;-71
2020/12/03 01:04:20;;;;;;;45.72;22.48;;;1.60;99.90;;;;;;5015216;28;20034;-73
2020/12/03 01:06:46;;;;;;;41.25;21.65;;;1.60;99.90;;;;;;5015165;28;20037;-70
2020/12/03 01:09:13;;;;;;;43.55;21.80;;;1.60;99.90;;;;;;5016185;28;20053;-73
2020/12/03 01:11:38;;;;;;;47.13;21.70;;;1.60;99.90;;;;;;5015566;28;20492;-73
2020/12/03 01:14:05;;;;;;;40.88;21.38;;;1.60;99.90;;;;;;5013906;28;20068;-72
2020/12/03 01:16:30;;;;;;;39.90;22.13;;;1.60;99.90;;;;;;5014183;28;20030;-73
2020/12/03 01:18:56;;;;;;;49.92;22.88;;;1.60;99.90;;;;;;5014333;28;20527;-70
2020/12/03 01:21:22;;;;;;;47.28;22.77;;;1.60;99.90;;;;;;5014149;28;20030;-70
2020/12/03 01:23:50;;;;;;;46.67;22.13;;;1.50;99.90;;;;;;5013513;28;20033;-71
2020/12/03 01:26:19;;;;;;;42.65;22.52;;;1.50;99.90;;;;;;5013892;28;20022;-70
2020/12/03 01:28:46;;;;;;;43.42;22.75;;;1.50;99.90;;;;;;5013983;28;20455;-71
2020/12/03 01:31:12;;;;;;;42.78;21.23;;;1.50;99.90;;;;;;5014054;28;20030;-70
2020/12/03 01:33:40;;;;;;;44.15;23.77;;;1.60;99.90;;;;;;5013489;28;20037;-72
2020/12/03 01:36:08;;;;;;;42.55;21.45;;;1.50;99.90;;;;;;5013843;28;20033;-71
2020/12/03 01:38:34;;;;;;;49.28;23.13;;;1.50;99.90;;;;;;5013842;28;20025;-71
2020/12/03 01:41:00;;;;;;;52.95;25.30;;;1.60;99.90;;;;;;5014201;28;20018;-70
2020/12/03 01:43:26;;;;;;;47.33;24.45;;;1.50;99.90;;;;;;5013106;28;20111;-70
2020/12/03 01:45:55;;;;;;;50.05;25.33;;;1.40;99.90;;;;;;5013736;28;20026;-71
2020/12/03 01:48:28;;;;;;;53.83;25.25;;;1.50;99.90;;;;;;5013387;28;20030;-71
2020/12/03 01:50:54;;;;;;;52.45;24.83;;;1.40;99.90;;;;;;5013835;28;20033;-71
2020/12/03 01:53:21;;;;;;;51.50;24.70;;;1.40;99.90;;;;;;5028060;28;20057;-71
2020/12/03 01:55:50;;;;;;;54.65;25.92;;;1.30;99.90;;;;;;5013767;28;20415;-72
2020/12/03 01:58:40;;;;;;;53.03;25.13;;;1.40;99.90;;;;;;5028428;28;20034;-70
2020/12/03 02:01:07;;;;;;;54.70;25.58;;;1.30;99.90;;;;;;5013704;28;20104;-71
2020/12/03 02:03:33;;;;;;;54.50;25.58;;;1.30;99.90;;;;;;5028654;28;20050;-71
2020/12/03 02:05:58;;;;;;;54.22;24.75;;;1.30;99.90;;;;;;5013902;28;20025;-72
2020/12/03 02:08:24;;;;;;;54.25;25.95;;;1.30;99.90;;;;;;5015236;28;20056;-72
2020/12/03 02:10:50;;;;;;;49.25;25.38;;;1.30;99.90;;;;;;5014690;28;20026;-71
2020/12/03 02:13:16;;;;;;;53.35;25.25;;;1.30;99.90;;;;;;5014986;28;20022;-71
2020/12/03 02:15:41;;;;;;;51.67;25.48;;;1.30;99.90;;;;;;5037606;28;20105;-72
2020/12/03 02:18:09;;;;;;;51.45;25.75;;;1.40;99.90;;;;;;5023609;28;20036;-70
2020/12/03 02:20:35;;;;;;;54.80;25.10;;;1.20;99.90;;;;;;5030533;28;20018;-72
2020/12/03 02:23:09;;;;;;;50.92;25.05;;;1.20;99.90;;;;;;5026110;28;20018;-70
2020/12/03 02:25:35;;;;;;;56.50;26.83;;;1.30;99.90;;;;;;5024686;28;20030;-72
2020/12/03 02:28:01;;;;;;;59.58;28.08;;;1.20;99.90;;;;;;5003906;28;20057;-72
2020/12/03 02:30:26;;;;;;;52.28;26.02;;;1.20;99.90;;;;;;5009888;28;20038;-72
2020/12/03 02:32:52;;;;;;;56.45;27.27;;;1.20;99.90;;;;;;4993559;28;20034;-71
2020/12/03 02:35:18;;;;;;;49.90;25.33;;;1.20;99.90;;;;;;4994677;28;20030;-72
2020/12/03 02:37:44;;;;;;;61.35;28.13;;;1.20;99.90;;;;;;4994175;28;20099;-72
2020/12/03 02:40:11;;;;;;;52.97;27.60;;;1.20;99.90;;;;;;4994832;28;20366;-69
2020/12/03 02:42:37;;;;;;;55.92;27.77;;;1.20;99.90;;;;;;4993909;28;20555;-69
2020/12/03 02:45:03;;;;;;;61.25;27.55;;;1.20;99.90;;;;;;4993824;28;20477;-70
2020/12/03 02:47:29;;;;;;;56.45;27.75;;;1.20;99.90;;;;;;4994064;28;20042;-71
2020/12/03 02:49:54;;;;;;;55.42;26.75;;;1.20;99.90;;;;;;4994152;28;20045;-71
2020/12/03 02:52:23;;;;;;;51.03;25.85;;;1.20;99.90;;;;;;4994526;28;20034;-70
2020/12/03 02:54:49;;;;;;;60.05;28.67;;;1.10;99.90;;;;;;4992835;28;20030;-72
2020/12/03 02:57:16;;;;;;;56.17;27.83;;;1.20;99.90;;;;;;5001715;28;20033;-70
2020/12/03 02:59:42;;;;;;;53.50;27.52;;;1.20;99.90;;;;;;5012875;28;20025;-70
2020/12/03 03:02:08;;;;;;;56.03;26.40;;;1.20;99.90;;;;;;5012750;28;20018;-71
2020/12/03 03:04:34;;;;;;;55.92;27.52;;;1.20;99.90;;;;;;5012308;28;20431;-70
2020/12/03 03:07:00;;;;;;;60.58;28.05;;;1.20;99.90;;;;;;5013156;28;20045;-72
2020/12/03 03:09:25;;;;;;;64.82;28.48;;;1.20;99.90;;;;;;5013076;28;20022;-70
2020/12/03 03:11:51;;;;;;;55.65;28.02;;;1.20;99.90;;;;;;5012932;28;20053;-70
2020/12/03 03:14:18;;;;;;;59.90;27.70;;;1.30;99.90;;;;;;5012746;28;20034;-71
2020/12/03 03:16:44;;;;;;;56.05;28.02;;;1.20;99.90;;;;;;5013525;28;20041;-71
2020/12/03 03:19:10;;;;;;;58.33;28.05;;;1.20;99.90;;;;;;5028698;28;20105;-70
2020/12/03 03:21:35;;;;;;;58.63;27.77;;;1.30;99.90;;;;;;5013298;28;20113;-70
2020/12/03 03:24:02;;;;;;;61.55;26.83;;;1.30;99.90;;;;;;5012344;28;20018;-72
2020/12/03 03:26:28;;;;;;;53.65;27.23;;;1.20;99.90;;;;;;5012570;28;20033;-71
2020/12/03 03:28:53;;;;;;;55.72;27.90;;;1.20;99.90;;;;;;5012294;28;20105;-70
2020/12/03 03:31:20;;;;;;;54.17;28.30;;;1.30;99.90;;;;;;5012446;28;20131;-71
2020/12/03 03:33:46;;;;;;;55.28;27.33;;;1.30;99.90;;;;;;5011724;28;20030;-73
2020/12/03 03:36:12;;;;;;;56.88;26.20;;;1.40;99.90;;;;;;5018055;28;20108;-72
2020/12/03 03:38:38;;;;;;;56.05;27.23;;;1.30;99.90;;;;;;5018057;28;20062;-70
2020/12/03 03:41:04;;;;;;;62.65;28.20;;;1.30;99.90;;;;;;5019967;28;20025;-70
2020/12/03 03:43:29;;;;;;;56.03;27.75;;;1.30;99.90;;;;;;5019057;28;20021;-71
2020/12/03 03:45:55;;;;;;;59.30;28.45;;;1.20;99.90;;;;;;5030537;28;20022;-71
2020/12/03 03:48:21;;;;;;;64.38;28.27;;;1.20;99.90;;;;;;5011571;28;20021;-71
2020/12/03 03:50:47;;;;;;;53.47;26.58;;;1.20;99.90;;;;;;5011846;28;20029;-72
2020/12/03 03:53:14;;;;;;;55.45;26.45;;;1.20;99.90;;;;;;5011036;28;20029;-71
2020/12/03 03:55:39;;;;;;;59.55;27.98;;;1.40;99.90;;;;;;5011810;28;20022;-71
2020/12/03 03:58:07;;;;;;;53.97;26.30;;;1.30;99.90;;;;;;5011080;28;20255;-71
2020/12/03 04:00:38;;;;;;;56.78;27.08;;;1.40;99.90;;;;;;5011811;28;20045;-72
2020/12/03 04:03:05;;;;;;;56.17;27.23;;;1.30;99.90;;;;;;5026065;28;20468;-70
2020/12/03 04:05:30;;;;;;;55.75;27.90;;;1.40;99.90;;;;;;5011655;28;20036;-71
2020/12/03 04:07:56;;;;;;;53.47;27.52;;;1.30;99.90;;;;;;5011464;28;20173;-70
2020/12/03 04:10:25;;;;;;;52.08;25.73;;;1.40;99.90;;;;;;5011051;28;20050;-70
2020/12/03 04:12:51;;;;;;;55.22;27.02;;;1.40;99.90;;;;;;5010606;28;20397;-70
2020/12/03 04:15:16;;;;;;;49.17;25.60;;;1.40;99.90;;;;;;5011719;28;20026;-70
2020/12/03 04:17:42;;;;;;;56.67;27.80;;;1.40;99.90;;;;;;5011164;28;20034;-70
2020/12/03 04:20:07;;;;;;;55.53;27.05;;;1.40;99.90;;;;;;5011591;28;20022;-70
2020/12/03 04:22:33;;;;;;;57.17;28.17;;;1.40;99.90;;;;;;5026750;28;20045;-71
2020/12/03 04:24:59;;;;;;;52.97;27.17;;;1.40;99.90;;;;;;5010724;28;20097;-71
2020/12/03 04:27:25;;;;;;;49.63;26.20;;;1.50;99.90;;;;;;5011030;28;20105;-71
2020/12/03 04:29:50;;;;;;;45.60;22.77;;;1.50;99.90;;;;;;5011292;28;20022;-71
2020/12/03 04:32:16;;;;;;;37.65;20.77;;;1.50;99.90;;;;;;5011442;28;20113;-72
2020/12/03 04:34:42;;;;;;;35.38;19.70;;;1.50;99.90;;;;;;5010762;28;20033;-72
2020/12/03 04:37:07;;;;;;;38.97;21.98;;;1.50;99.90;;;;;;5011834;28;20110;-71
2020/12/03 04:39:33;;;;;;;38.15;19.95;;;1.60;99.90;;;;;;5014081;28;20076;-72
2020/12/03 04:41:59;;;;;;;36.53;19.63;;;1.70;99.90;;;;;;5012983;28;20537;-70
2020/12/03 04:44:32;;;;;;;35.70;20.85;;;1.70;99.90;;;;;;5012654;28;20021;-71
2020/12/03 04:47:35;;;;;;;33.33;19.42;;;1.70;99.90;;;;;;5011378;28;20022;-71
2020/12/03 04:50:24;;;;;;;33.95;18.70;;;1.70;99.90;;;;;;5011604;28;20514;-70
2020/12/03 04:53:17;;;;;;;31.17;17.95;;;1.70;99.90;;;;;;5010537;28;20467;-70
2020/12/03 04:55:55;;;;;;;28.23;15.98;;;1.80;99.90;;;;;;5011152;28;20026;-71
2020/12/03 04:58:58;;;;;;;27.05;16.85;;;1.80;99.90;;;;;;5010632;28;20101;-71
2020/12/03 05:01:29;;;;;;;26.33;15.80;;;1.80;99.90;;;;;;5010948;28;20022;-71
2020/12/03 05:04:13;;;;;;;30.35;16.17;;;1.80;99.90;;;;;;5009983;28;20025;-71
2020/12/03 05:06:47;;;;;;;25.25;14.23;;;1.80;99.90;;;;;;5010642;28;20057;-71
2020/12/03 05:09:21;;;;;;;26.58;15.60;;;1.90;99.90;;;;;;5008919;28;20053;-70
2020/12/03 05:11:53;;;;;;;24.02;15.00;;;1.90;99.90;;;;;;5010698;28;20084;-70
2020/12/03 05:14:40;;;;;;;23.90;14.05;;;1.80;99.90;;;;;;5010192;28;20065;-70
2020/12/03 05:17:38;;;;;;;24.80;15.07;;;1.80;99.90;;;;;;5010709;28;20511;-69
2020/12/03 05:20:44;;;;;;;24.92;14.35;;;1.90;99.90;;;;;;5010474;28;20500;-71
2020/12/03 05:23:16;;;;;;;25.45;15.18;;;1.90;99.90;;;;;;4997789;28;20153;-71
2020/12/03 05:25:42;;;;;;;24.00;15.43;;;1.90;99.90;;;;;;5004974;28;20014;-71
2020/12/03 05:28:53;;;;;;;24.52;15.00;;;1.90;99.90;;;;;;4998504;28;20101;-71
2020/12/03 05:31:29;;;;;;;23.70;14.85;;;1.90;99.90;;;;;;4989576;28;20409;-71
2020/12/03 05:34:20;;;;;;;25.38;14.40;;;1.90;99.90;;;;;;4993284;28;20331;-71
2020/12/03 05:36:55;;;;;;;22.77;14.88;;;1.90;99.90;;;;;;4993957;28;20049;-71
2020/12/03 05:39:48;;;;;;;23.95;14.48;;;2.00;99.90;;;;;;4994021;28;20027;-71
2020/12/03 05:42:22;;;;;;;23.15;14.07;;;2.00;99.90;;;;;;4994044;28;20048;-71
2020/12/03 05:44:53;;;;;;;22.38;14.43;;;1.90;99.90;;;;;;4993108;28;20026;-71
2020/12/03 05:47:21;;;;;;;22.85;14.93;;;1.90;99.90;;;;;;4993763;28;20026;-69
2020/12/03 05:49:49;;;;;;;23.88;15.10;;;1.90;99.90;;;;;;4994284;28;20023;-68
2020/12/03 05:52:21;;;;;;;22.05;13.68;;;1.90;99.90;;;;;;4994083;28;20038;-71
2020/12/03 05:55:05;;;;;;;21.60;13.82;;;1.90;99.90;;;;;;4993069;28;20083;-72
2020/12/03 05:57:34;;;;;;;23.42;14.30;;;1.90;99.90;;;;;;5004553;28;20033;-70
2020/12/03 06:00:24;;;;;;;23.25;13.93;;;1.90;99.90;;;;;;5013871;28;20054;-70
2020/12/03 06:03:16;;;;;;;22.33;14.27;;;1.90;99.90;;;;;;5007113;23;20090;-79
2020/12/03 06:06:15;;;;;;;23.42;14.40;;;2.00;99.90;;;;;;4989957;28;20053;-81
2020/12/03 06:08:50;;;;;;;21.60;14.65;;;2.10;99.90;;;;;;4972949;28;20133;-81
2020/12/03 06:11:34;;;;;;;25.55;14.35;;;2.10;99.90;;;;;;4973651;28;20118;-78
2020/12/03 06:14:34;;;;;;;20.92;13.75;;;2.10;99.90;;;;;;4956372;28;20034;-74
2020/12/03 06:17:30;;;;;;;19.92;13.55;;;2.20;99.90;;;;;;4954651;28;20028;-76
2020/12/03 06:20:33;;;;;;;23.95;14.30;;;2.30;99.90;;;;;;4973597;28;20442;-76
2020/12/03 06:23:32;;;;;;;23.05;13.75;;;2.30;99.90;;;;;;4987660;28;20026;-76
2020/12/03 06:26:17;;;;;;;23.10;13.50;;;2.30;99.90;;;;;;4972144;28;20137;-76
2020/12/03 06:29:12;;;;;;;22.60;13.88;;;2.20;99.90;;;;;;4961646;28;20474;-76
2020/12/03 06:32:19;;;;;;;24.92;13.95;;;2.20;99.90;;;;;;4973140;28;20173;-76
2020/12/03 06:34:56;;;;;;;22.67;13.50;;;2.20;99.90;;;;;;4952917;28;20431;-76
2020/12/03 06:37:38;;;;;;;20.23;13.38;;;2.20;99.90;;;;;;4973034;28;20364;-75
2020/12/03 06:40:14;;;;;;;20.90;13.80;;;2.10;99.90;;;;;;4973039;28;20022;-75
2020/12/03 06:42:42;;;;;;;23.98;15.02;;;2.10;99.90;;;;;;4973013;28;20106;-76
2020/12/03 06:45:35;;;;;;;21.90;14.70;;;2.20;99.90;;;;;;4971480;28;20026;-76
2020/12/03 06:48:45;;;;;;;25.65;15.27;;;2.10;99.90;;;;;;4973260;28;20110;-77
2020/12/03 06:52:02;;;;;;;21.67;13.13;;;2.20;99.90;;;;;;4930262;29;20035;-76
2020/12/03 06:54:56;;;;;;;23.38;14.52;;;2.10;99.90;;;;;;4963466;28;20061;-77
2020/12/03 06:57:46;;;;;;;20.83;14.13;;;2.10;99.90;;;;;;4970239;28;20058;-78
2020/12/03 07:00:33;;;;;;;20.88;13.05;;;2.00;99.90;;;;;;4953182;29;20126;-76
2020/12/03 07:03:34;;;;;;;21.20;13.63;;;2.10;99.90;;;;;;4952917;28;20031;-74
2020/12/03 07:06:29;;;;;;;21.67;14.10;;;2.10;99.90;;;;;;4931171;29;20027;-75
2020/12/03 07:09:29;;;;;;;24.30;14.75;;;2.10;99.90;;;;;;4957983;28;20038;-74
2020/12/03 07:12:18;;;;;;;22.45;15.43;;;2.20;99.90;;;;;;4971859;28;20068;-74
2020/12/03 07:14:50;;;;;;;18.95;12.63;;;2.30;99.90;;;;;;4986894;28;20019;-74
2020/12/03 07:17:51;;;;;;;22.73;13.73;;;2.20;99.90;;;;;;4972616;28;20109;-74
2020/12/03 07:20:52;;;;;;;21.27;13.60;;;2.20;99.90;;;;;;4972591;28;20395;-75
2020/12/03 07:23:42;;;;;;;23.05;13.75;;;2.30;99.90;;;;;;4973620;28;20061;-74
2020/12/03 07:26:44;;;;;;;21.13;13.15;;;2.20;99.90;;;;;;4974604;28;20090;-73
2020/12/03 07:29:16;;;;;;;21.25;13.60;;;2.30;99.90;;;;;;4956488;29;20027;-74
2020/12/03 07:31:45;;;;;;;21.73;13.55;;;2.30;99.90;;;;;;4955423;28;20031;-74
2020/12/03 07:34:23;;;;;;;22.77;13.15;;;2.30;99.90;;;;;;4954768;28;20054;-75
2020/12/03 07:36:58;;;;;;;23.05;14.55;;;2.30;99.90;;;;;;4954402;28;20032;-74
2020/12/03 07:39:32;;;;;;;20.00;13.13;;;2.30;99.90;;;;;;4953263;28;20400;-74
2020/12/03 07:42:10;;;;;;;19.50;13.00;;;2.40;99.90;;;;;;4953618;28;20093;-74
2020/12/03 07:44:37;;;;;;;21.83;14.05;;;2.40;99.90;;;;;;4950928;28;20019;-75
2020/12/03 07:47:24;;;;;;;23.50;14.38;;;2.40;99.90;;;;;;4962436;28;20782;-76
2020/12/03 07:49:54;;;;;;;18.98;12.68;;;2.40;99.90;;;;;;4972633;28;20495;-75
2020/12/03 07:52:23;;;;;;;18.15;12.98;;;2.40;99.90;;;;;;4972742;28;20027;-76
2020/12/03 07:54:49;;;;;;;18.73;12.57;;;2.60;99.90;;;;;;4987836;28;20042;-75
2020/12/03 07:57:33;;;;;;;22.83;14.20;;;2.60;99.90;;;;;;4972705;28;20029;-76
2020/12/03 08:00:18;;;;;;;21.42;13.65;;;2.50;99.90;;;;;;4972251;28;20441;-76
2020/12/03 08:03:01;;;;;;;22.00;14.07;;;2.50;99.90;;;;;;4972187;28;20046;-74
2020/12/03 08:05:38;;;;;;;;;;;2.60;99.90;;;;;;4971842;28;20026;-76
2020/12/03 08:08:31;;;;;;;23.67;13.90;;;2.50;99.90;;;;;;4972472;28;20392;-75
2020/12/03 08:10:56;;;;;;;27.20;16.83;;;2.50;99.90;;;;;;4972910;28;20511;-75
2020/12/03 08:13:42;;;;;;;38.38;20.75;;;2.60;99.90;;;;;;4970403;28;20074;-75
2020/12/03 08:16:11;;;;;;;28.67;15.77;;;2.50;99.90;;;;;;4972419;28;20035;-76
2020/12/03 08:18:41;;;;;;;23.70;13.70;;;2.40;99.90;;;;;;4972330;28;20019;-76
2020/12/03 08:21:08;;;;;;;23.85;13.88;;;2.40;99.90;;;;;;4972708;28;20030;-77
2020/12/03 08:23:34;;;;;;;18.85;13.48;;;2.40;99.90;;;;;;4971390;28;20030;-76
2020/12/03 08:25:59;;;;;;;22.98;13.80;;;2.50;99.90;;;;;;4972649;28;20122;-76
2020/12/03 08:28:28;;;;;;;21.38;13.85;;;2.50;99.90;;;;;;4971556;28;20026;-76
2020/12/03 08:30:54;;;;;;;26.17;14.95;;;2.70;99.90;;;;;;4971551;28;20033;-77
2020/12/03 08:33:29;;;;;;;25.10;15.20;;;2.90;99.90;;;;;;4974349;28;20022;-75
2020/12/03 08:35:56;;;;;;;20.60;14.13;;;2.90;99.90;;;;;;4972430;28;20030;-76
2020/12/03 08:38:29;;;;;;;24.25;14.48;;;2.90;99.90;;;;;;4970566;28;20030;-76
2020/12/03 08:40:58;;;;;;;22.85;14.27;;;3.00;99.90;;;;;;4973240;28;20485;-75
2020/12/03 08:43:25;;;;;;;18.58;13.05;;;3.10;99.90;;;;;;4987459;28;20606;-76
2020/12/03 08:46:03;;;;;;;18.20;12.73;;;3.20;99.90;;;;;;4971464;28;20117;-76
2020/12/03 08:48:33;;;;;;;18.02;12.88;;;3.20;99.90;;;;;;4970985;28;20062;-76
2020/12/03 08:51:08;;;;;;;18.15;12.07;;;3.20;99.90;;;;;;4972265;28;20027;-76
2020/12/03 08:53:34;;;;;;;18.38;12.05;;;3.20;99.90;;;;;;4971859;28;20026;-75
2020/12/03 08:56:15;;;;;;;24.88;12.73;;;3.10;99.90;;;;;;4972731;28;20027;-76
2020/12/03 08:59:03;;;;;;;17.77;11.88;;;3.30;99.90;;;;;;4974124;28;20030;-76
2020/12/03 09:01:34;;;;;;;16.45;10.98;;;3.30;99.90;;;;;;4954714;28;20063;-76
2020/12/03 09:04:03;;;;;;;17.83;12.05;;;3.30;99.90;;;;;;4975170;28;20023;-76
2020/12/03 09:06:31;;;;;;;20.58;11.98;;;3.20;99.90;;;;;;4974887;28;20063;-75
2020/12/03 09:08:57;;;;;;;18.25;11.50;;;3.10;99.90;;;;;;4974920;28;20038;-76
2020/12/03 09:11:24;;;;;;;16.70;10.75;;;3.30;99.90;;;;;;4989816;28;20023;-76
2020/12/03 09:13:57;;;;;;;18.88;12.13;;;3.30;99.90;;;;;;4974892;28;20031;-76
2020/12/03 09:16:26;;;;;;;20.30;11.75;;;3.30;99.90;;;;;;4975734;28;20030;-76
2020/12/03 09:18:52;;;;;;;18.15;12.05;;;3.30;99.90;;;;;;4975692;28;20023;-76
2020/12/03 09:21:28;;;;;;;19.10;12.35;;;3.20;99.90;;;;;;4975159;28;20038;-75
2020/12/03 09:23:55;;;;;;;56.88;28.48;;;3.00;99.90;;;;;;4974918;28;20038;-75
2020/12/03 09:26:32;;;;;;;18.52;12.20;;;3.20;99.90;;;;;;4989673;28;20019;-76
2020/12/03 09:29:01;;;;;;;19.80;11.40;;;3.40;99.90;;;;;;4974973;28;20448;-76
2020/12/03 09:31:30;;;;;;;24.80;12.00;;;3.30;99.90;;;;;;4974753;28;20035;-76
2020/12/03 09:33:57;;;;;;;24.70;15.05;;;3.20;99.90;;;;;;4972998;28;20027;-77
2020/12/03 09:36:23;;;;;;;20.17;12.18;;;3.40;99.90;;;;;;4973280;28;20113;-76
2020/12/03 09:38:50;;;;;;;16.10;10.98;;;3.50;99.90;;;;;;4989974;28;20130;-76
2020/12/03 09:41:21;;;;;;;18.45;11.80;;;3.40;99.90;;;;;;4974806;28;20023;-75
2020/12/03 09:43:49;;;;;;;19.55;11.15;;;3.40;99.90;;;;;;4974125;28;20019;-76
2020/12/03 09:46:22;;;;;;;21.77;11.48;;;3.50;99.90;;;;;;4989746;28;20053;-76
2020/12/03 09:48:47;;;;;;;22.48;11.48;;;3.40;99.90;;;;;;4974312;28;20476;-73
2020/12/03 09:51:14;;;;;;;13.90;9.13;;;3.60;99.90;;;;;;4973868;28;20043;-75
2020/12/03 09:53:39;;;;;;;18.73;11.40;;;3.70;99.90;;;;;;4958747;28;20031;-77
2020/12/03 09:56:05;;;;;;;17.23;11.18;;;3.80;99.90;;;;;;4960738;28;20147;-75
2020/12/03 09:58:31;;;;;;;16.23;9.32;;;4.00;99.90;;;;;;4979890;28;20023;-77
2020/12/03 10:01:04;;;;;;;15.75;9.15;;;4.10;99.90;;;;;;4975012;28;20046;-74
2020/12/03 10:04:08;;;;;;;14.60;9.15;;;4.00;99.90;;;;;;4973177;28;20162;-74
2020/12/03 10:06:46;;;;;;;16.77;9.93;;;3.80;99.90;;;;;;4964793;28;20057;-75
2020/12/03 10:09:21;;;;;;;16.83;10.20;;;3.90;99.90;;;;;;4973245;28;20050;-75
2020/12/03 10:12:41;;;;;;;13.95;7.93;;;4.10;99.90;;;;;;4973763;28;20031;-74
2020/12/03 10:15:15;;;;;;;12.48;7.60;;;4.20;99.90;;;;;;4968826;28;20283;-75
2020/12/03 10:18:01;;;;;;;13.80;6.95;;;3.90;99.90;;;;;;4985596;28;20169;-74
2020/12/03 10:20:27;;;;;;;10.07;6.25;;;4.00;99.90;;;;;;4973461;28;20053;-75
2020/12/03 10:22:56;;;;;;;9.23;6.45;;;4.00;99.90;;;;;;4988434;28;20054;-75
2020/12/03 10:25:27;;;;;;;14.63;7.60;;;3.90;99.90;;;;;;4973137;28;20025;-74
2020/12/03 10:28:11;;;;;;;12.80;8.13;;;4.00;99.90;;;;;;4987069;28;20031;-74
2020/12/03 10:30:39;;;;;;;11.18;6.90;;;3.90;99.90;;;;;;4972409;28;20053;-74
2020/12/03 10:33:11;;;;;;;11.55;7.35;;;3.70;99.90;;;;;;4974669;28;20026;-74
2020/12/03 10:35:48;;;;;;;16.35;7.45;;;3.70;99.90;;;;;;4970155;28;20034;-74
2020/12/03 10:38:36;;;;;;;9.73;7.00;;;4.00;99.90;;;;;;4969344;28;20077;-73
2020/12/03 10:41:04;;;;;;;12.43;7.15;;;4.00;99.90;;;;;;4973196;28;20115;-74
2020/12/03 10:43:41;;;;;;;9.30;6.78;;;4.20;99.90;;;;;;4980109;28;20015;-75
2020/12/03 10:46:13;;;;;;;13.45;7.50;;;4.00;99.90;;;;;;4985124;28;20027;-75
2020/12/03 10:48:47;;;;;;;10.68;7.13;;;4.30;99.90;;;;;;4973802;28;20027;-76
2020/12/03 10:51:13;;;;;;;9.68;7.18;;;4.40;99.90;;;;;;4975591;28;20027;-75
2020/12/03 10:53:46;;;;;;;11.25;6.72;;;4.40;99.90;;;;;;4975470;28;20412;-77
2020/12/03 10:56:14;;;;;;;9.48;7.20;;;4.10;99.90;;;;;;4992225;28;20031;-76
2020/12/03 10:59:03;;;;;;;10.75;6.88;;;4.20;99.90;;;;;;4978237;28;20105;-75
2020/12/03 11:01:32;;;;;;;11.30;6.93;;;4.30;99.90;;;;;;4971718;28;20037;-75
2020/12/03 11:04:03;;;;;;;12.77;7.45;;;4.10;99.90;;;;;;4972966;28;20027;-75
2020/12/03 11:06:29;;;;;;;14.27;8.27;;;4.00;99.90;;;;;;4974877;28;20023;-75
2020/12/03 11:09:02;;;;;;;10.88;7.40;;;4.00;99.90;;;;;;4976319;28;20033;-75
2020/12/03 11:11:37;;;;;;;11.25;7.40;;;4.20;99.90;;;;;;4971476;28;20073;-74
2020/12/03 11:14:10;;;;;;;10.63;7.38;;;4.20;99.90;;;;;;4971690;28;20068;-75
2020/12/03 11:16:38;;;;;;;11.02;6.75;;;4.20;99.90;;;;;;4959324;28;20110;-76
2020/12/03 11:19:08;;;;;;;10.93;7.50;;;4.20;99.90;;;;;;4952866;28;20023;-75
2020/12/03 11:21:38;;;;;;;13.52;7.95;;;4.30;99.90;;;;;;4967669;28;20035;-75
2020/12/03 11:24:31;;;;;;;9.95;6.63;;;4.30;99.90;;;;;;4952906;28;20015;-76
2020/12/03 11:26:59;;;;;;;13.10;7.38;;;4.20;99.90;;;;;;4957165;28;20040;-77
2020/12/03 11:29:25;;;;;;;9.65;7.43;;;4.10;99.90;;;;;;4971858;28;20030;-76
2020/12/03 11:31:56;;;;;;;12.38;7.43;;;4.20;99.90;;;;;;4972490;28;20364;-77
2020/12/03 11:34:38;;;;;;;10.95;7.40;;;4.30;99.90;;;;;;4971973;28;20038;-76
2020/12/03 11:37:04;;;;;;;13.90;8.05;;;4.20;99.90;;;;;;4986979;28;20031;-77
2020/12/03 11:39:31;;;;;;;15.18;8.45;;;4.40;99.90;;;;;;4987427;28;20502;-77
2020/12/03 11:45:40;;;;;;;12.02;7.60;;;4.50;99.90;;;;;;4971998;28;20042;-76
2020/12/03 11:48:20;;;;;;;10.02;6.93;;;4.50;99.90;;;;;;4972175;28;20023;-76
2020/12/03 11:50:46;;;;;;;13.18;8.15;;;4.20;99.90;;;;;;4986899;28;20082;-75
2020/12/03 11:53:12;;;;;;;14.07;8.15;;;4.40;99.90;;;;;;4971434;28;20027;-76
2020/12/03 11:55:39;;;;;;;11.70;7.13;;;4.50;99.90;;;;;;4986704;28;20031;-76
2020/12/03 11:58:06;;;;;;;15.35;8.15;;;4.60;99.90;;;;;;4986795;28;20030;-76
2020/12/03 12:00:32;;;;;;;10.10;7.57;;;4.60;99.90;;;;;;4971812;28;20018;-76
2020/12/03 12:03:02;;;;;;;9.57;7.03;;;4.40;99.90;;;;;;4970136;28;20510;-76
2020/12/03 12:10:48;;;;;;;12.10;7.97;;;4.40;99.90;;;;;;4971740;28;20420;-77
2020/12/03 12:13:15;;;;;;;11.73;7.90;;;4.40;99.90;;;;;;4970976;28;20023;-76
2020/12/03 12:15:41;;;;;;;10.13;7.55;;;4.50;99.90;;;;;;4971523;28;20367;-76
2020/12/03 12:18:07;;;;;;;13.48;7.75;;;4.70;99.90;;;;;;4970171;28;20031;-76
2020/12/03 12:20:33;;;;;;;10.63;7.05;;;4.80;99.90;;;;;;4971435;28;20018;-76
2020/12/03 12:22:59;;;;;;;28.75;9.05;;;4.80;99.90;;;;;;4972686;28;20516;-77
2020/12/03 12:25:25;;;;;;;13.38;8.20;;;4.90;99.90;;;;;;4972686;28;20062;-77
2020/12/03 12:27:50;;;;;;;12.55;7.90;;;4.80;99.90;;;;;;4971558;28;20027;-75
2020/12/03 12:30:16;;;;;;;11.05;8.02;;;4.90;99.90;;;;;;4971598;28;20035;-76
2020/12/03 12:32:42;;;;;;;12.13;8.15;;;4.90;99.90;;;;;;4975176;28;20337;-77
2020/12/03 12:35:07;;;;;;;14.38;9.30;;;4.90;99.90;;;;;;4975275;28;20031;-77
2020/12/03 12:37:33;;;;;;;17.85;9.52;;;4.80;99.90;;;;;;4990271;28;20035;-75
2020/12/03 12:39:59;;;;;;;14.65;8.70;;;4.70;99.90;;;;;;4975311;28;20054;-75
2020/12/03 12:42:26;;;;;;;15.38;9.15;;;4.90;99.90;;;;;;4975209;28;20464;-73
2020/12/03 12:44:53;;;;;;;19.10;8.57;;;5.00;99.90;;;;;;4974042;28;20543;-75
2020/12/03 12:47:19;;;;;;;17.52;8.77;;;5.20;99.90;;;;;;4975479;28;20383;-75
2020/12/03 12:49:44;;;;;;;13.27;8.68;;;5.30;99.90;;;;;;4989970;28;20052;-74
2020/12/03 12:52:10;;;;;;;14.02;9.20;;;5.40;99.90;;;;;;4974841;28;20027;-75
2020/12/03 12:54:36;;;;;;;16.65;10.02;;;5.50;99.90;;;;;;4974588;28;20033;-73
2020/12/03 12:57:02;;;;;;;15.13;9.55;;;5.50;99.90;;;;;;4974429;28;20037;-72
2020/12/03 12:59:28;;;;;;;13.98;9.65;;;5.40;99.90;;;;;;4975530;28;20257;-73
2020/12/03 13:01:54;;;;;;;16.45;10.27;;;5.30;99.90;;;;;;4975320;28;20105;-73
2020/12/03 13:04:21;;;;;;;18.33;9.90;;;5.20;99.90;;;;;;4973560;28;20030;-74
2020/12/03 13:06:47;;;;;;;22.77;10.85;;;5.30;99.90;;;;;;4974723;28;20030;-74
2020/12/03 13:09:14;;;;;;;18.55;10.23;;;5.40;99.90;;;;;;4975042;28;20391;-74
2020/12/03 13:11:41;;;;;;;14.85;9.98;;;5.50;99.90;;;;;;4973451;28;20033;-74
2020/12/03 13:14:08;;;;;;;17.35;10.85;;;5.20;99.90;;;;;;4974636;28;20019;-76
2020/12/03 13:16:35;;;;;;;14.90;9.57;;;5.10;99.90;;;;;;4974855;28;20027;-73